createdAt,value
2019-03-30T00:04:09.156Z,98733.73
2019-03-30T00:06:57.956Z,98572.61
2019-03-30T00:09:46.769Z,98808.05
2019-03-30T00:12:37.355Z,98803.73
2019-03-30T00:15:26.171Z,98802.98
2019-03-30T00:18:14.968Z,98802.08
2019-03-30T00:21:03.788Z,98808.69
2019-03-30T00:24:11.633Z,98799.53
2019-03-30T00:27:00.683Z,98797.94
2019-03-30T00:29:49.503Z,98796.44
2019-03-30T00:32:57.302Z,98793.36
2019-03-30T00:35:46.117Z,98801.03
2019-03-30T00:38:34.983Z,98805.28
2019-03-30T00:41:23.798Z,98794.52
2019-03-30T00:44:05.292Z,98796.66
2019-03-30T00:46:54.082Z,98624.69
2019-03-30T00:49:48.982Z,98796.41
2019-03-30T00:52:33.419Z,98794.22
2019-03-30T00:55:22.234Z,98570.75
2019-03-30T00:58:11.030Z,98798.78
2019-03-30T01:00:52.715Z,98794.75
2019-03-30T01:03:41.512Z,98791.24
2019-03-30T01:06:30.323Z,98798.75
2019-03-30T01:09:19.121Z,98791.17
2019-03-30T01:12:07.978Z,98788.08
2019-03-30T01:14:57.038Z,98789.58
2019-03-30T01:17:45.858Z,98789.77
2019-03-30T01:20:34.659Z,98786.11
2019-03-30T01:23:23.498Z,98782.69
2019-03-30T01:26:12.388Z,98784.61
2019-03-30T01:29:20.916Z,98782.84
2019-03-30T01:32:09.748Z,98781.56
2019-03-30T01:34:58.576Z,98781.13
2019-03-30T01:37:47.523Z,98780.70
2019-03-30T01:40:36.323Z,98630.31
2019-03-30T01:43:16.065Z,98775.55
2019-03-30T01:46:04.942Z,98775.75
2019-03-30T01:48:53.776Z,98605.33
2019-03-30T01:51:42.577Z,98772.42
2019-03-30T01:54:31.391Z,98773.50
2019-03-30T01:57:20.207Z,98717.16
2019-03-30T02:00:30.369Z,98769.58
2019-03-30T02:03:19.163Z,98542.33
2019-03-30T02:06:07.983Z,98761.20
2019-03-30T02:08:56.779Z,98758.81
2019-03-30T02:11:45.598Z,98754.33
2019-03-30T02:14:34.416Z,98759.30
2019-03-30T02:17:23.214Z,98758.95
2019-03-30T02:20:32.933Z,98756.84
2019-03-30T02:23:21.738Z,98753.25
2019-03-30T02:26:10.546Z,98748.22
2019-03-30T02:28:59.355Z,98671.04
2019-03-30T02:31:48.184Z,98750.89
2019-03-30T02:34:36.969Z,98748.48
2019-03-30T02:37:25.781Z,98752.86
2019-03-30T02:40:14.578Z,98744.03
2019-03-30T02:43:03.391Z,98744.58
2019-03-30T02:45:45.053Z,98736.61
2019-03-30T02:48:33.869Z,98731.00
2019-03-30T02:51:22.675Z,98733.55
2019-03-30T02:54:11.485Z,98598.14
2019-03-30T02:57:00.279Z,98730.30
2019-03-30T02:59:49.100Z,98449.61
2019-03-30T03:02:31.145Z,98728.42
2019-03-30T03:05:20.327Z,98480.50
2019-03-30T03:08:09.159Z,98722.86
2019-03-30T03:10:57.949Z,98714.78
2019-03-30T03:13:46.760Z,98714.86
2019-03-30T03:16:35.604Z,98713.78
2019-03-30T03:19:24.378Z,98708.61
2019-03-30T03:22:13.263Z,98712.27
2019-03-30T03:25:02.065Z,98704.02
2019-03-30T03:27:50.905Z,98709.53
2019-03-30T03:30:39.714Z,98709.38
2019-03-30T03:36:22.878Z,98699.60
2019-03-30T03:39:11.705Z,98694.69
2019-03-30T03:45:28.949Z,98695.80
2019-03-30T03:48:17.772Z,98470.78
2019-03-30T03:51:24.439Z,98688.84
2019-03-30T03:53:57.439Z,98686.84
2019-03-30T03:57:07.159Z,98438.33
2019-03-30T04:00:16.884Z,98685.10
2019-03-30T04:06:42.036Z,98682.36
2019-03-30T04:09:51.745Z,98679.74
2019-03-30T04:13:01.469Z,98675.44
2019-03-30T04:18:47.891Z,98675.31
2019-03-30T04:21:43.721Z,98635.69
2019-03-30T04:24:25.666Z,98675.83
2019-03-30T04:27:33.500Z,98674.37
2019-03-30T04:30:22.298Z,98683.80
2019-03-30T04:33:11.111Z,98672.66
2019-03-30T04:36:00.025Z,98429.34
2019-03-30T04:38:48.839Z,98602.30
2019-03-30T04:41:37.646Z,98675.83
2019-03-30T04:44:18.943Z,98667.27
2019-03-30T04:47:07.737Z,98668.02
2019-03-30T04:49:56.548Z,98588.24
2019-03-30T04:52:45.340Z,98666.64
2019-03-30T04:55:34.157Z,98514.54
2019-03-30T04:58:22.952Z,98665.33
2019-03-30T05:00:52.426Z,98418.72
2019-03-30T05:03:41.225Z,98673.73
2019-03-30T05:06:22.469Z,98667.43
2019-03-30T05:09:11.260Z,98671.32
2019-03-30T05:12:00.082Z,98675.61
2019-03-30T05:14:48.888Z,98677.84
2019-03-30T05:17:46.694Z,98674.54
2019-03-30T05:20:28.226Z,98673.91
2019-03-30T05:23:17.068Z,98438.82
2019-03-30T05:29:13.604Z,98667.92
2019-03-30T05:32:02.405Z,98669.51
2019-03-30T05:34:51.220Z,98670.20
2019-03-30T05:37:40.026Z,98670.47
2019-03-30T05:40:28.834Z,98567.31
2019-03-30T05:43:10.718Z,98676.12
2019-03-30T05:46:19.119Z,98596.41
2019-03-30T05:49:07.919Z,98675.30
2019-03-30T05:51:56.731Z,98678.43
2019-03-30T05:54:45.524Z,98683.05
2019-03-30T05:57:34.350Z,98675.31
2019-03-30T06:03:32.539Z,98671.40
2019-03-30T06:06:21.331Z,98419.83
2019-03-30T06:09:10.148Z,98671.98
2019-03-30T06:11:58.948Z,98453.48
2019-03-30T06:14:47.766Z,98666.26
2019-03-30T06:17:36.560Z,98391.09
2019-03-30T06:20:25.374Z,98659.48
2019-03-30T06:23:14.199Z,98650.39
2019-03-30T06:26:03.014Z,98392.56
2019-03-30T06:28:51.814Z,98653.33
2019-03-30T06:31:40.625Z,98654.02
2019-03-30T06:34:29.428Z,98653.29
2019-03-30T06:37:18.244Z,98654.86
2019-03-30T06:40:07.044Z,98514.64
2019-03-30T06:42:55.932Z,98661.19
2019-03-30T06:45:37.278Z,98657.41
2019-03-30T06:48:26.089Z,98649.97
2019-03-30T06:51:14.886Z,98648.83
2019-03-30T06:54:03.772Z,98649.79
2019-03-30T06:56:52.567Z,98655.47
2019-03-30T06:59:41.391Z,98647.61
2019-03-30T07:02:30.195Z,98647.80
2019-03-30T07:05:18.996Z,98650.52
2019-03-30T07:08:28.702Z,98650.59
2019-03-30T07:11:21.407Z,98648.59
2019-03-30T07:14:08.474Z,98653.44
2019-03-30T07:16:57.759Z,98648.50
2019-03-30T07:20:07.495Z,98651.55
2019-03-30T07:23:10.680Z,98647.50
2019-03-30T07:25:47.003Z,98654.20
2019-03-30T07:28:35.816Z,98512.14
2019-03-30T07:31:24.611Z,98638.66
2019-03-30T07:34:13.422Z,98639.22
2019-03-30T07:37:02.228Z,98644.45
2019-03-30T07:39:51.051Z,98639.38
2019-03-30T07:42:39.870Z,98634.00
2019-03-30T07:45:21.854Z,98423.13
2019-03-30T07:48:10.674Z,98638.41
2019-03-30T07:50:59.466Z,98633.77
2019-03-30T07:53:48.281Z,98561.06
2019-03-30T07:56:37.098Z,98638.08
2019-03-30T07:59:25.903Z,98635.50
2019-03-30T08:02:14.716Z,98623.97
2019-03-30T08:08:24.891Z,98619.67
2019-03-30T08:11:14.527Z,98364.95
2019-03-30T08:14:04.551Z,98607.19
2019-03-30T08:16:53.375Z,98479.29
2019-03-30T08:19:42.171Z,98473.67
2019-03-30T08:22:30.994Z,98588.48
2019-03-30T08:25:19.859Z,98608.43
2019-03-30T08:28:08.681Z,98398.23
2019-03-30T08:30:57.493Z,98607.68
2019-03-30T08:36:41.286Z,98369.28
2019-03-30T08:39:49.134Z,98541.23
2019-03-30T08:42:37.971Z,98598.99
2019-03-30T08:45:19.889Z,98608.63
2019-03-30T08:48:08.702Z,98598.59
2019-03-30T08:50:57.517Z,98364.36
2019-03-30T08:53:54.455Z,98588.63
2019-03-30T08:56:36.870Z,98589.20
2019-03-30T08:59:25.694Z,98590.13
2019-03-30T09:05:22.269Z,98589.56
2019-03-30T09:08:11.074Z,98581.14
2019-03-30T09:11:00.948Z,98506.42
2019-03-30T09:13:49.749Z,98339.61
2019-03-30T09:16:38.571Z,98567.64
2019-03-30T09:19:27.367Z,98565.14
2019-03-30T09:22:16.195Z,98564.94
2019-03-30T09:25:24.830Z,98570.63
2019-03-30T09:28:13.657Z,98562.45
2019-03-30T09:31:02.483Z,98563.14
2019-03-30T09:33:51.294Z,98555.75
2019-03-30T09:36:40.199Z,98555.84
2019-03-30T09:39:28.998Z,98558.35
2019-03-30T09:42:17.828Z,98553.61
2019-03-30T09:45:27.563Z,98545.56
2019-03-30T09:48:08.838Z,98435.67
2019-03-30T09:50:57.637Z,98415.15
2019-03-30T09:53:46.467Z,98464.61
2019-03-30T09:56:35.290Z,98541.94
2019-03-30T09:59:24.116Z,98535.26
2019-03-30T10:02:12.921Z,98532.73
2019-03-30T10:05:01.751Z,98530.58
2019-03-30T10:07:50.554Z,98531.83
2019-03-30T10:10:39.373Z,98529.36
2019-03-30T10:13:28.178Z,98528.14
2019-03-30T10:16:17.002Z,98522.56
2019-03-30T10:19:05.805Z,98349.45
2019-03-30T10:21:54.627Z,98515.34
2019-03-30T10:24:43.437Z,98511.84
2019-03-30T10:27:32.253Z,98502.59
2019-03-30T10:30:21.065Z,98323.55
2019-03-30T10:33:09.894Z,98440.66
2019-03-30T10:35:58.715Z,98499.89
2019-03-30T10:38:47.528Z,98494.38
2019-03-30T10:41:36.329Z,98490.50
2019-03-30T10:44:25.164Z,98487.05
2019-03-30T10:47:07.131Z,98299.66
2019-03-30T10:49:56.291Z,98476.34
2019-03-30T10:52:45.099Z,98261.17
2019-03-30T10:55:33.924Z,98285.06
2019-03-30T10:58:22.736Z,98472.59
2019-03-30T11:01:11.562Z,98463.89
2019-03-30T11:04:00.365Z,98460.16
2019-03-30T11:07:08.223Z,98452.69
2019-03-30T11:13:04.936Z,98447.17
2019-03-30T11:15:53.728Z,98445.19
2019-03-30T11:18:42.553Z,98440.20
2019-03-30T11:21:31.376Z,98432.78
2019-03-30T11:24:20.177Z,98320.11
2019-03-30T11:27:16.613Z,98422.05
2019-03-30T11:30:26.311Z,98417.13
2019-03-30T11:33:15.134Z,98421.80
2019-03-30T11:36:03.945Z,98418.13
2019-03-30T11:38:52.772Z,98413.48
2019-03-30T11:41:41.591Z,98402.51
2019-03-30T11:44:23.119Z,98403.24
2019-03-30T11:47:11.933Z,98402.98
2019-03-30T11:50:00.740Z,98402.19
2019-03-30T11:52:49.546Z,98193.16
2019-03-30T11:55:38.360Z,98399.34
2019-03-30T11:58:27.487Z,98415.66
2019-03-30T12:01:16.394Z,98389.59
2019-03-30T12:04:05.197Z,98211.16
2019-03-30T12:06:54.032Z,98384.32
2019-03-30T12:09:35.807Z,98378.31
2019-03-30T12:12:24.705Z,98375.50
2019-03-30T12:15:13.768Z,98368.53
2019-03-30T12:18:02.574Z,98202.78
2019-03-30T12:20:51.393Z,98196.28
2019-03-30T12:23:42.654Z,98365.09
2019-03-30T12:26:30.737Z,98362.09
2019-03-30T12:29:19.548Z,98357.08
2019-03-30T12:32:08.377Z,98135.78
2019-03-30T12:34:57.171Z,98336.70
2019-03-30T12:37:46.055Z,98339.79
2019-03-30T12:43:30.098Z,98335.47
2019-03-30T12:46:18.954Z,98326.02
2019-03-30T12:49:07.844Z,98322.31
2019-03-30T12:51:56.705Z,98316.85
2019-03-30T12:54:45.943Z,98318.48
2019-03-30T12:57:34.776Z,98310.30
2019-03-30T13:00:23.704Z,98312.75
2019-03-30T13:03:12.572Z,98310.88
2019-03-30T13:06:02.215Z,98233.37
2019-03-30T13:08:51.017Z,98093.49
2019-03-30T13:11:39.845Z,98300.98
2019-03-30T13:14:28.652Z,98181.84
2019-03-30T13:17:17.474Z,98282.51
2019-03-30T13:20:26.421Z,98277.98
2019-03-30T13:23:15.244Z,98278.68
2019-03-30T13:26:04.374Z,98279.91
2019-03-30T13:28:54.603Z,98275.03
2019-03-30T13:31:43.416Z,98224.66
2019-03-30T13:34:32.245Z,98262.61
2019-03-30T13:37:21.330Z,98260.31
2019-03-30T13:40:10.339Z,98252.25
2019-03-30T13:42:51.833Z,98263.13
2019-03-30T13:45:40.659Z,98260.42
2019-03-30T13:48:29.451Z,98261.94
2019-03-30T13:51:18.274Z,98252.00
2019-03-30T13:54:07.088Z,98141.76
2019-03-30T13:56:55.889Z,98273.70
2019-03-30T13:59:44.712Z,98140.84
2019-03-30T14:02:33.514Z,98245.83
2019-03-30T14:05:22.336Z,98242.70
2019-03-30T14:08:11.212Z,98243.81
2019-03-30T14:11:00.073Z,98022.81
2019-03-30T14:13:48.897Z,98241.65
2019-03-30T14:16:37.727Z,98064.08
2019-03-30T14:19:26.528Z,98122.00
2019-03-30T14:25:09.375Z,98224.32
2019-03-30T14:27:58.198Z,98235.03
2019-03-30T14:30:47.011Z,98229.67
2019-03-30T14:33:54.869Z,98122.98
2019-03-30T14:36:43.687Z,98227.89
2019-03-30T14:39:32.810Z,98108.12
2019-03-30T14:42:21.613Z,98212.44
2019-03-30T14:45:31.353Z,98036.38
2019-03-30T14:48:20.144Z,98204.65
2019-03-30T14:51:08.964Z,98094.97
2019-03-30T14:53:57.771Z,98043.55
2019-03-30T14:56:46.592Z,98210.04
2019-03-30T14:59:35.390Z,98218.50
2019-03-30T15:02:24.583Z,98214.06
2019-03-30T15:05:13.477Z,98223.27
2019-03-30T15:08:02.281Z,97994.68
2019-03-30T15:10:51.119Z,98039.33
2019-03-30T15:13:39.941Z,98007.25
2019-03-30T15:16:28.751Z,98066.21
2019-03-30T15:19:17.571Z,98197.27
2019-03-30T15:22:06.390Z,98043.02
2019-03-30T15:24:55.212Z,98201.30
2019-03-30T15:27:44.031Z,98039.80
2019-03-30T15:30:32.857Z,98198.31
2019-03-30T15:33:21.662Z,98195.07
2019-03-30T15:36:10.485Z,98096.27
2019-03-30T15:38:59.321Z,98038.00
2019-03-30T15:41:40.704Z,98202.08
2019-03-30T15:44:29.533Z,98195.38
2019-03-30T15:47:18.349Z,98192.70
2019-03-30T15:53:22.352Z,98192.42
2019-03-30T15:56:11.147Z,98015.77
2019-03-30T15:58:59.971Z,98131.06
2019-03-30T16:01:48.774Z,98197.34
2019-03-30T16:04:37.620Z,98194.26
2019-03-30T16:07:26.399Z,98186.41
2019-03-30T16:10:15.465Z,98002.25
2019-03-30T16:13:04.710Z,98189.14
2019-03-30T16:15:53.974Z,98187.70
2019-03-30T16:18:42.767Z,98186.53
2019-03-30T16:21:31.596Z,98016.98
2019-03-30T16:24:20.400Z,98185.06
2019-03-30T16:27:29.476Z,98182.26
2019-03-30T16:30:19.305Z,98180.98
2019-03-30T16:33:08.121Z,98179.64
2019-03-30T16:35:56.923Z,98182.73
2019-03-30T16:38:45.744Z,98183.05
2019-03-30T16:41:34.543Z,98184.80
2019-03-30T16:44:16.495Z,98174.73
2019-03-30T16:47:05.384Z,98184.47
2019-03-30T16:49:54.203Z,98183.70
2019-03-30T16:52:43.031Z,98181.00
2019-03-30T16:55:31.838Z,98181.47
2019-03-30T16:58:20.672Z,98174.03
2019-03-30T17:01:09.470Z,98167.16
2019-03-30T17:03:58.285Z,98170.37
2019-03-30T17:06:27.749Z,98176.72
2019-03-30T17:09:16.575Z,98159.91
2019-03-30T17:12:05.448Z,98169.73
2019-03-30T17:14:54.269Z,98167.02
2019-03-30T17:20:37.012Z,98169.47
2019-03-30T17:23:25.846Z,98171.05
2019-03-30T17:32:17.288Z,98179.91
2019-03-30T17:35:27.029Z,98189.88
2019-03-30T17:38:15.839Z,98196.23
2019-03-30T17:41:04.721Z,98199.51
2019-03-30T17:43:46.615Z,97989.23
2019-03-30T17:49:30.132Z,98207.97
2019-03-30T17:52:18.941Z,98212.16
2019-03-30T18:01:31.155Z,98222.52
2019-03-30T18:04:19.980Z,98218.77
2019-03-30T18:07:08.797Z,98220.98
2019-03-30T18:09:57.623Z,98135.19
2019-03-30T18:12:46.423Z,98217.56
2019-03-30T18:15:35.264Z,98221.61
2019-03-30T18:18:24.074Z,98222.08
2019-03-30T18:21:12.900Z,98227.88
2019-03-30T18:24:01.696Z,98074.28
2019-03-30T18:26:50.528Z,98227.36
2019-03-30T18:29:31.724Z,98186.27
2019-03-30T18:32:21.026Z,98236.16
2019-03-30T18:35:09.964Z,98239.90
2019-03-30T18:37:59.325Z,98238.45
2019-03-30T18:43:55.966Z,98117.69
2019-03-30T18:46:44.790Z,98247.15
2019-03-30T18:49:33.595Z,98249.23
2019-03-30T18:52:22.417Z,98249.75
2019-03-30T18:55:32.148Z,98253.09
2019-03-30T18:58:20.957Z,98260.66
2019-03-30T19:01:09.776Z,98257.80
2019-03-30T19:03:58.591Z,98265.58
2019-03-30T19:06:28.125Z,98274.78
2019-03-30T19:09:17.013Z,98277.63
2019-03-30T19:12:05.838Z,98275.77
2019-03-30T19:14:54.654Z,98278.95
2019-03-30T19:17:44.028Z,98283.25
2019-03-30T19:20:32.859Z,98279.20
2019-03-30T19:23:21.654Z,98280.34
2019-03-30T19:25:51.177Z,98214.72
2019-03-30T19:28:32.774Z,98286.36
2019-03-30T19:31:21.591Z,98073.97
2019-03-30T19:34:10.441Z,98102.96
2019-03-30T19:36:59.297Z,98283.38
2019-03-30T19:39:48.129Z,98282.30
2019-03-30T19:42:37.083Z,98279.74
2019-03-30T19:45:25.942Z,98279.22
2019-03-30T19:48:14.811Z,98285.39
2019-03-30T19:51:03.764Z,98281.72
2019-03-30T19:53:52.734Z,98284.61
2019-03-30T19:59:29.923Z,98283.98
2019-03-30T20:02:18.727Z,98289.33
2019-03-30T20:05:07.722Z,98226.53
2019-03-30T20:08:11.177Z,98287.11
2019-03-30T20:10:47.067Z,98106.47
2019-03-30T20:13:35.867Z,98289.14
2019-03-30T20:16:24.690Z,98048.27
2019-03-30T20:19:13.508Z,98292.45
2019-03-30T20:22:02.335Z,98096.70
2019-03-30T20:24:51.495Z,98290.05
2019-03-30T20:27:40.315Z,98293.83
2019-03-30T20:30:24.398Z,98099.56
2019-03-30T20:33:12.612Z,98295.64
2019-03-30T20:36:01.402Z,98194.56
2019-03-30T20:38:50.223Z,98297.97
2019-03-30T20:41:39.047Z,98150.60
2019-03-30T20:44:20.920Z,98300.77
2019-03-30T20:47:09.748Z,98300.30
2019-03-30T20:49:58.576Z,98168.55
2019-03-30T20:53:06.546Z,98304.68
2019-03-30T20:55:55.382Z,98309.22
2019-03-30T20:58:44.390Z,98167.08
2019-03-30T21:01:33.520Z,98313.75
2019-03-30T21:04:22.323Z,98315.33
2019-03-30T21:07:11.157Z,98318.43
2019-03-30T21:09:59.970Z,98313.30
2019-03-30T21:12:48.788Z,98313.02
2019-03-30T21:15:37.615Z,98313.87
2019-03-30T21:18:26.482Z,98315.17
2019-03-30T21:21:15.547Z,98098.09
2019-03-30T21:24:04.367Z,98311.30
2019-03-30T21:26:53.159Z,98240.56
2019-03-30T21:29:54.009Z,98311.05
2019-03-30T21:32:25.776Z,98239.31
2019-03-30T21:35:14.680Z,98337.86
2019-03-30T21:38:03.477Z,98308.36
2019-03-30T21:41:11.326Z,98307.64
2019-03-30T21:44:00.145Z,98312.38
2019-03-30T21:46:41.822Z,98310.13
2019-03-30T21:49:31.084Z,98307.56
2019-03-30T21:52:21.182Z,98306.47
2019-03-30T21:58:38.546Z,98311.50
2019-03-30T22:01:27.336Z,98310.27
2019-03-30T22:04:16.150Z,98102.56
2019-03-30T22:07:05.020Z,98314.27
2019-03-30T22:09:54.008Z,98204.56
2019-03-30T22:12:42.819Z,98313.36
2019-03-30T22:15:31.912Z,98309.08
2019-03-30T22:21:28.472Z,98317.71
2019-03-30T22:24:17.267Z,98319.87
2019-03-30T22:27:06.091Z,98325.81
2019-03-30T22:29:54.944Z,98320.25
2019-03-30T22:32:43.794Z,98318.14
2019-03-30T22:38:47.977Z,98318.36
2019-03-30T22:41:36.785Z,98176.39
2019-03-30T22:44:25.599Z,98316.67
2019-03-30T22:47:07.010Z,98177.33
2019-03-30T22:49:55.802Z,98313.41
2019-03-30T22:52:44.627Z,98107.10
2019-03-30T22:55:33.426Z,98102.84
2019-03-30T22:58:22.244Z,98323.38
2019-03-30T23:04:06.438Z,98326.73
2019-03-30T23:06:55.260Z,98316.52
2019-03-30T23:09:44.144Z,98083.34
2019-03-30T23:12:32.948Z,98317.98
2019-03-30T23:15:21.756Z,98246.70
2019-03-30T23:18:10.577Z,98315.34
2019-03-30T23:20:59.408Z,98318.75
2019-03-30T23:23:48.225Z,98320.86
2019-03-30T23:26:37.022Z,98317.85
2019-03-30T23:29:25.860Z,98314.44
2019-03-30T23:32:14.638Z,98311.48
2019-03-30T23:37:59.258Z,98313.64
2019-03-30T23:40:48.054Z,98232.17
2019-03-30T23:43:36.892Z,98313.70
2019-03-30T23:46:25.676Z,98241.55
2019-03-30T23:49:07.216Z,98317.56
2019-03-30T23:51:56.015Z,98308.61
2019-03-30T23:54:44.831Z,98316.26
